Aeroboteco Virtual Airlines! Uma nuvem a frente.



 INFORMAÇÕES METEOROLÓGICAS
METAR FOR LIMC
ADDS - METARS form results

(1258 UTC 18 April 2019)
Data provider http://aviationweather.gov/metar/data/
 
METAR text: LIMC 181250Z 13006KT 050V210 CAVOK 20/03 Q1024 NOSIG
Conditions at: LIMC (MILANO/MALPENSA , IT) observed 1250 UTC 18 April 2019
Temperature: 20.0°C (68°F)
Dewpoint: 3.0°C (37°F) [RH = 32%]
Pressure (altimeter): 30.24 inches Hg (1024.0 mb)
Winds: from the SE (130 degrees) at 7 MPH (6 knots; 3.1 m/s)
Visibility: 6 or more miles (10+ km)
Ceiling: ceiling and visibility are OK
Clouds: unknown
Weather: no significant weather observed at this time

METAR text: LIMC 181220Z 17006KT 110V230 CAVOK 20/01 Q1024 NOSIG
Conditions at: LIMC (MILANO/MALPENSA , IT) observed 1220 UTC 18 April 2019
Temperature: 20.0°C (68°F)
Dewpoint: 1.0°C (34°F) [RH = 28%]
Pressure (altimeter): 30.24 inches Hg (1024.0 mb)
Winds: from the S (170 degrees) at 7 MPH (6 knots; 3.1 m/s)
Visibility: 6 or more miles (10+ km)
Ceiling: ceiling and visibility are OK
Clouds: unknown
Weather: no significant weather observed at this time

Forecast for: LIMC (MILANO/MALPENSA , IT)
Text: TAF LIMC 181100Z 1812/1918 VRB05KT 9999 SCT060
Forecast period: 1200 UTC 18 April 2019 to 1800 UTC 19 April 2019
Forecast type: FROM: standard forecast or significant change
Winds: variable direction winds at 6 MPH (5 knots; 2.6 m/s)
Visibility: 6 or more miles 10+ km)
Ceiling: at least 12,000 feet AGL
Clouds: scattered clouds at 6000 feet AGL
Weather: no significant weather forecast for this period

 MAPA DO AEROPORTO

 INFORMAÇÕES DA PISTA
Pista 17L Tamanho da pista 12861 ft Largura da pista 197 ft
Elevação da pista 745 ft Ranhura da pista 3094 ft Proa da pista 170
Pista 35R Tamanho da pista 12861 ft Largura da pista 197 ft
Elevação da pista 691 ft Ranhura da pista 0 ft Proa da pista 350
Pista 17R Tamanho da pista 12861 ft Largura da pista 197 ft
Elevação da pista 764 ft Ranhura da pista 0 ft Proa da pista 170
Pista 35L Tamanho da pista 12861 ft Largura da pista 197 ft
Elevação da pista 696 ft Ranhura da pista 1329 ft Proa da pista 350

 FREQUÊNCIAS DO AEROPORTO
Tipo APP Nome MILANO APP Frequência 132.7 MHZ
Tipo ATIS Nome ATIS Frequência 120.025 MHZ
Tipo CLD Nome CLNC DEL Frequência 120.9 MHZ
Tipo DEP Nome MILANO DEP Frequência 126.75 MHZ
Tipo GND Nome GND Frequência 121.9 MHZ
Tipo TWR Nome TWR Frequência 119 MHZ

 AUXÍLIOS DE NAVEGAÇÃO PRÓXIMOS AO AEROPORTO
Tipo VOR-DME Nome Malpensa Frequência 111200 KHZ
Tipo NDB Nome Malpensa Frequência 364 KHZ